LQSA/SJJ METAR and TAF weather

Enter ICAO airport designator
Station Type Date Time Source
LQSA METAR 2020/07/11 23:00 UTC NOAA

LQSA 112300Z 33008KT 300V020 9999 SCT030 BKN040 21/16 Q1019


Station Type Date Time Source
LQSA Decoded METAR 2020/07/11 23:00 UTC NOAA

Sarajevo, Bosnia and Herzegovina (LQSA) 43-49N 018-20E 510M
Jul 11, 2020 - 07:00 PM EDT / 2020.07.11 2300 UTC
Wind: from the NNW (330 degrees) at 9 MPH (8 KT) (direction variable):0
Visibility: greater than 7 mile(s):0
Sky conditions: mostly cloudy
Temperature: 69 F (21 C)
Dew Point: 60 F (16 C)
Relative Humidity: 73%
Pressure (altimeter): 30.09 in. Hg (1019 hPa)
ob: LQSA 112300Z 33008KT 300V020 9999 SCT030 BKN040 21/16 Q1019
cycle: 23

Station Type Date Time Source
LQSA TAF 2020/07/11 18:11 UTC NOAA

TAF COR LQSA 111700Z 1118/1218 30004KT 9999 SCT033 TX27/1118Z TN13/1203Z
TEMPO 1118/1215 30014KT PROB30
TEMPO 1120/1122 34015G25KT 5000 TSRA FEW025CB BKN030 PROB30
TEMPO 1120/1202 4000 RA BKN007 BKN020

Example: see airport list